Roscoe, MO (64781)

4:58 PM CDT on August 27, 2014 (GMT -0500)
RAWS WAH KON TAH MO US | Change Station
CLOSE
Current Station
Personal Weather Station
Location: El Dorado Springs, MO
Elevation: 944 ft
Nearby Weather Stations
Active Advisory: Heat Advisory Active Notice: Public Information Statement

Elev 944 ft 37.90 °N, 93.99 °W | Updated 30 minutes ago

Partly Cloudy
Partly Cloudy
93 °F
Feels Like 99 °F
N
8
Wind Variable Wind from NNE
Gusts 15.0 mph

Today
High -- | Low -- °F
--% Chance of Precip.
Yesterday
High -- | Low -- °F
Precip. -- in
6:40 AM 7:51 PM
Waxing Crescent, 5% visible
Pressure 30.06 in
Visibility 10.0 miles
Clouds Clear
Heat Index 99 °F
Dew Point 70 °F
Humidity 47%
Rainfall 0.43 in
Snow Depth Not available.
UV 5 out of 12
Pollen 10.90 out of 12
Air Quality Not available.
Flu Activity Not available.
METAR KGLY 272135Z AUTO 05009KT 10SM CLR 30/24 A3006 RMK AO2

More Conditions Fewer Conditions

Pressure 30.06 in
Visibility 10.0 miles
Clouds Clear
Heat Index 99 °F
Dew Point 70 °F
Humidity 47%
Rainfall 0.43 in
Snow Depth Not available.
UV 5 out of 12
Pollen 10.90 out of 12
Air Quality Not available.
Flu Activity Not available.
METAR KGLY 272135Z AUTO 05009KT 10SM CLR 30/24 A3006 RMK AO2

More Conditions Fewer Conditions

10-Day Weather Forecast

Almanac

Astronomy

Aug. 27, 2014 Rise Set
Actual Time 6:40 AM CDT 7:51 PM CDT
Civil Twilight 6:13 AM CDT 8:19 PM CDT
Nautical Twilight 5:41 AM CDT 8:51 PM CDT
Astronomical Twilight 5:07 AM CDT 9:25 PM CDT
Moon 8:34 AM CDT 8:47 PM CDT
Length of Visible Light 14h 05m
Length of Day
13h 11m
Tomorrow will be 2m 19s shorter.
Waxing Crescent, 5% of the Moon is Illuminated
Today
Waxing Crescent
Sep 2
First Quarter
Sep 8
Full
Sep 15
Last Quarter
Sep 24
New

Today's Extremes

State Highs State Lows

Community

WunderPhotos

Upload Photos

1,747,791 photos uploaded!

Nearby

Snow Depth

Station Depth Elevation
No new snow has been reported.

Earthquake Activity

City Distance Mag. Time & Date
No recent earthquake activity has been reported nearby.
Minimum magnitude displayed is 2.5.

Coastal Water Temperatures

Place Temperature
No Stations Reporting

Nearby Weather Stations